Time;durP1;ratioP1;P1;durP2;ratioP2;P2;SDS_P1;SDS_P2;PMS_P1;PMS_P2;Temp;Humidity;BMP_temperature;BMP_pressure;BME280_temperature;BME280_humidity;BME280_pressure;Samples;Min_cycle;Max_cycle;Signal;HPM_P1;HPM_P2
2024/01/06 00:00:10;;;;;;;26.13;14.60;;;;;;;;;;6293799;28;20047;-74
2024/01/06 00:03:13;;;;;;;29.52;16.35;;;;;;;;;;6265476;28;20072;-73
2024/01/06 00:06:17;;;;;;;30.08;17.25;;;;;;;;;;6269896;28;20063;-74
2024/01/06 00:09:19;;;;;;;25.52;14.93;;;;;;;;;;6274716;28;20515;-74
2024/01/06 00:12:21;;;;;;;24.58;13.07;;;;;;;;;;6289814;28;20037;-73
2024/01/06 00:15:23;;;;;;;27.45;17.02;;;;;;;;;;6270241;28;20122;-74
2024/01/06 00:18:26;;;;;;;25.83;15.93;;;;;;;;;;6295927;28;20197;-74
2024/01/06 00:21:28;;;;;;;26.23;17.25;;;;;;;;;;6278137;28;20040;-74
2024/01/06 00:24:30;;;;;;;25.15;16.15;;;;;;;;;;6294055;28;20059;-74
2024/01/06 00:27:32;;;;;;;27.20;15.90;;;;;;;;;;6258649;28;20482;-74
2024/01/06 00:30:35;;;;;;;29.80;14.88;;;;;;;;;;6297029;28;20078;-74
2024/01/06 00:33:37;;;;;;;28.33;13.88;;;;;;;;;;6260737;28;20044;-74
2024/01/06 00:36:39;;;;;;;23.20;14.00;;;;;;;;;;6283303;28;20455;-74
2024/01/06 00:39:41;;;;;;;26.33;14.95;;;;;;;;;;6275582;28;20048;-74
2024/01/06 00:42:44;;;;;;;33.08;18.75;;;;;;;;;;6292094;28;20041;-74
2024/01/06 00:45:46;;;;;;;25.90;14.55;;;;;;;;;;6276800;28;20048;-74
2024/01/06 00:48:48;;;;;;;21.42;11.73;;;;;;;;;;6289622;28;20114;-74
2024/01/06 00:51:50;;;;;;;17.13;10.18;;;;;;;;;;6273376;28;20162;-74
2024/01/06 00:54:53;;;;;;;20.02;12.27;;;;;;;;;;6286730;28;20148;-74
2024/01/06 00:57:55;;;;;;;21.13;12.48;;;;;;;;;;6275058;28;20040;-74
2024/01/06 01:00:57;;;;;;;15.07;9.90;;;;;;;;;;6263726;28;20051;-74
2024/01/06 01:03:59;;;;;;;14.88;9.02;;;;;;;;;;6289955;28;20111;-74
2024/01/06 01:07:01;;;;;;;17.17;11.38;;;;;;;;;;6266370;28;20037;-73
2024/01/06 01:10:04;;;;;;;24.80;12.15;;;;;;;;;;6303688;28;20044;-73
2024/01/06 01:13:06;;;;;;;20.60;12.32;;;;;;;;;;6272464;28;20068;-73
2024/01/06 01:16:08;;;;;;;35.17;14.50;;;;;;;;;;6293056;28;20101;-73
2024/01/06 01:19:10;;;;;;;25.10;14.20;;;;;;;;;;6288301;28;20037;-73
2024/01/06 01:22:14;;;;;;;26.77;16.48;;;;;;;;;;6272690;28;20033;-72
2024/01/06 01:25:17;;;;;;;22.42;13.27;;;;;;;;;;6283514;28;20135;-73
2024/01/06 01:28:19;;;;;;;24.38;13.93;;;;;;;;;;6256353;28;20052;-73
2024/01/06 01:31:21;;;;;;;19.83;10.88;;;;;;;;;;6281732;28;20056;-73
2024/01/06 01:34:23;;;;;;;18.27;9.77;;;;;;;;;;6272804;28;20056;-73
2024/01/06 01:37:27;;;;;;;25.00;11.75;;;;;;;;;;6295721;28;20052;-73
2024/01/06 01:40:29;;;;;;;23.83;11.68;;;;;;;;;;6289617;28;20631;-73
2024/01/06 01:43:31;;;;;;;24.52;12.68;;;;;;;;;;6269098;28;20040;-73
2024/01/06 01:46:33;;;;;;;20.05;12.05;;;;;;;;;;6257873;28;20868;-73
2024/01/06 01:49:37;;;;;;;23.33;11.23;;;;;;;;;;6269390;28;20131;-73
2024/01/06 01:52:41;;;;;;;16.83;8.32;;;;;;;;;;6255224;28;20040;-73
2024/01/06 01:55:43;;;;;;;14.25;7.18;;;;;;;;;;6288748;28;20439;-73
2024/01/06 01:58:46;;;;;;;18.40;7.82;;;;;;;;;;6270751;28;20514;-73
2024/01/06 02:01:49;;;;;;;12.88;5.63;;;;;;;;;;6296764;28;20045;-73
2024/01/06 02:04:51;;;;;;;9.85;4.22;;;;;;;;;;6291512;28;20135;-73
2024/01/06 02:07:54;;;;;;;7.30;4.30;;;;;;;;;;6301488;28;20076;-73
2024/01/06 02:10:56;;;;;;;7.13;3.47;;;;;;;;;;6280266;28;20093;-73
2024/01/06 02:13:58;;;;;;;7.50;4.22;;;;;;;;;;6261489;28;20047;-73
2024/01/06 02:17:02;;;;;;;6.05;4.22;;;;;;;;;;6290615;28;20108;-73
2024/01/06 02:20:04;;;;;;;8.05;3.83;;;;;;;;;;6274580;28;20585;-72
2024/01/06 02:23:07;;;;;;;5.68;2.40;;;;;;;;;;6265330;28;20049;-73
2024/01/06 02:26:10;;;;;;;4.25;3.22;;;;;;;;;;6318210;28;20132;-73
2024/01/06 02:29:12;;;;;;;4.53;2.97;;;;;;;;;;6285912;28;20048;-73
2024/01/06 02:32:14;;;;;;;16.70;7.20;;;;;;;;;;6276013;28;20071;-73
2024/01/06 02:35:16;;;;;;;13.25;5.95;;;;;;;;;;6258822;28;20040;-73
2024/01/06 02:38:18;;;;;;;54.90;22.65;;;;;;;;;;6291023;28;20094;-73
2024/01/06 02:41:20;;;;;;;24.88;11.95;;;;;;;;;;6272771;28;20068;-73
2024/01/06 02:44:22;;;;;;;14.90;7.18;;;;;;;;;;6260122;28;20052;-73
2024/01/06 02:47:24;;;;;;;14.15;7.70;;;;;;;;;;6287352;28;20041;-73
2024/01/06 02:50:26;;;;;;;12.65;7.60;;;;;;;;;;6262986;28;20131;-73
2024/01/06 02:53:30;;;;;;;42.35;16.38;;;;;;;;;;6279726;28;20723;-73
2024/01/06 02:56:32;;;;;;;53.85;24.00;;;;;;;;;;6282676;28;20871;-73
2024/01/06 02:59:34;;;;;;;30.98;14.40;;;;;;;;;;6265339;28;20102;-72
2024/01/06 03:02:39;;;;;;;21.50;11.77;;;;;;;;;;6275096;28;20110;-73
2024/01/06 03:05:41;;;;;;;40.67;20.83;;;;;;;;;;6290505;28;20051;-73
2024/01/06 03:08:43;;;;;;;20.70;11.13;;;;;;;;;;6284493;28;20044;-73
2024/01/06 03:11:45;;;;;;;15.73;9.73;;;;;;;;;;6279029;28;20850;-73
2024/01/06 03:14:47;;;;;;;29.40;15.18;;;;;;;;;;6293709;28;20047;-73
2024/01/06 03:17:49;;;;;;;16.52;9.40;;;;;;;;;;6287780;28;20091;-73
2024/01/06 03:20:52;;;;;;;22.70;13.90;;;;;;;;;;6291301;28;20813;-73
2024/01/06 03:23:55;;;;;;;25.02;12.02;;;;;;;;;;6294706;28;20044;-73
2024/01/06 03:26:57;;;;;;;32.53;17.00;;;;;;;;;;6290751;28;20683;-73
2024/01/06 03:30:00;;;;;;;39.92;22.30;;;;;;;;;;6241057;28;20134;-73
2024/01/06 03:33:02;;;;;;;47.42;24.95;;;;;;;;;;6289311;28;20049;-73
2024/01/06 03:36:08;;;;;;;34.25;17.13;;;;;;;;;;6291092;28;20043;-73
2024/01/06 03:39:10;;;;;;;21.10;14.02;;;;;;;;;;6286773;28;20081;-73
2024/01/06 03:42:13;;;;;;;27.42;14.10;;;;;;;;;;6270699;28;20078;-73
2024/01/06 03:45:16;;;;;;;24.23;13.27;;;;;;;;;;6274129;28;20082;-73
2024/01/06 03:48:18;;;;;;;22.65;14.27;;;;;;;;;;6265734;28;20036;-73
2024/01/06 03:51:21;;;;;;;18.75;13.25;;;;;;;;;;6276508;28;20033;-73
2024/01/06 03:54:24;;;;;;;20.13;12.13;;;;;;;;;;6287559;28;20047;-73
2024/01/06 03:57:26;;;;;;;21.95;12.48;;;;;;;;;;6293202;28;20036;-73
2024/01/06 04:00:28;;;;;;;18.23;10.18;;;;;;;;;;6292953;28;20071;-73
2024/01/06 04:03:30;;;;;;;19.85;11.85;;;;;;;;;;6287517;28;20052;-73
2024/01/06 04:06:32;;;;;;;19.98;12.75;;;;;;;;;;6281001;28;20051;-73
2024/01/06 04:09:35;;;;;;;23.67;12.30;;;;;;;;;;6293272;28;20051;-73
2024/01/06 04:12:37;;;;;;;18.15;10.60;;;;;;;;;;6264670;28;20045;-73
2024/01/06 04:15:40;;;;;;;20.88;11.50;;;;;;;;;;6274401;28;20045;-72
2024/01/06 04:18:42;;;;;;;18.75;10.32;;;;;;;;;;6261079;28;20114;-73
2024/01/06 04:21:44;;;;;;;17.08;9.80;;;;;;;;;;6269737;28;20052;-73
2024/01/06 04:24:46;;;;;;;20.20;10.52;;;;;;;;;;6279233;28;20047;-73
2024/01/06 04:27:49;;;;;;;22.38;11.82;;;;;;;;;;6302776;28;20052;-73
2024/01/06 04:30:52;;;;;;;22.48;11.70;;;;;;;;;;6269383;28;20044;-73
2024/01/06 04:33:54;;;;;;;49.15;24.42;;;;;;;;;;6301469;28;20131;-73
2024/01/06 04:36:56;;;;;;;25.02;15.77;;;;;;;;;;6306534;28;20114;-73
2024/01/06 04:39:58;;;;;;;28.58;15.00;;;;;;;;;;6295223;28;20130;-73
2024/01/06 04:43:01;;;;;;;110.43;55.65;;;;;;;;;;6281902;28;20081;-73
2024/01/06 04:46:03;;;;;;;28.70;15.00;;;;;;;;;;6273508;28;20048;-73
2024/01/06 04:49:05;;;;;;;23.70;13.18;;;;;;;;;;6288070;28;20044;-73
2024/01/06 04:52:07;;;;;;;20.60;9.10;;;;;;;;;;6279767;28;20054;-73
2024/01/06 04:55:09;;;;;;;16.77;10.43;;;;;;;;;;6267233;28;20050;-72
2024/01/06 04:58:12;;;;;;;26.27;14.55;;;;;;;;;;6272868;28;20043;-72
2024/01/06 05:01:14;;;;;;;15.73;10.70;;;;;;;;;;6266779;28;20431;-72
2024/01/06 05:04:16;;;;;;;14.13;9.70;;;;;;;;;;6288034;28;20108;-72
2024/01/06 05:07:18;;;;;;;14.10;9.20;;;;;;;;;;6279136;28;20052;-72
2024/01/06 05:10:20;;;;;;;14.77;9.93;;;;;;;;;;6286730;28;20049;-72
2024/01/06 05:13:22;;;;;;;18.05;10.93;;;;;;;;;;6291023;28;20077;-74
2024/01/06 05:16:24;;;;;;;24.30;13.75;;;;;;;;;;6283900;28;20438;-72
2024/01/06 05:19:27;;;;;;;28.33;17.77;;;;;;;;;;6275694;28;20400;-72
2024/01/06 05:22:40;;;;;;;24.73;14.48;;;;;;;;;;6277818;28;20438;-75
2024/01/06 05:25:42;;;;;;;18.48;11.57;;;;;;;;;;6291242;28;20048;-73
2024/01/06 05:28:44;;;;;;;15.88;9.45;;;;;;;;;;6326177;28;20040;-73
2024/01/06 05:31:48;;;;;;;14.55;9.98;;;;;;;;;;6265555;28;20036;-73
2024/01/06 05:34:51;;;;;;;14.55;9.23;;;;;;;;;;6272073;28;20137;-72
2024/01/06 05:37:53;;;;;;;13.70;9.57;;;;;;;;;;6255155;28;20159;-73
2024/01/06 05:40:56;;;;;;;15.57;9.85;;;;;;;;;;6268881;28;20102;-73
2024/01/06 05:43:58;;;;;;;13.27;8.07;;;;;;;;;;6268933;28;20072;-73
2024/01/06 05:47:01;;;;;;;15.07;9.50;;;;;;;;;;6283931;28;20496;-73
2024/01/06 05:50:05;;;;;;;19.90;10.70;;;;;;;;;;6287130;28;20727;-73
2024/01/06 05:53:09;;;;;;;17.83;10.40;;;;;;;;;;6285653;28;20057;-73
2024/01/06 05:56:11;;;;;;;19.60;10.57;;;;;;;;;;6280660;28;20089;-72
2024/01/06 05:59:13;;;;;;;17.63;10.38;;;;;;;;;;6276971;28;20040;-73
2024/01/06 06:02:15;;;;;;;17.40;10.30;;;;;;;;;;6274647;28;20119;-72
2024/01/06 06:05:17;;;;;;;96.75;48.15;;;;;;;;;;6269085;28;20040;-73
2024/01/06 06:08:19;;;;;;;110.00;48.95;;;;;;;;;;6281151;28;20056;-73
2024/01/06 06:11:21;;;;;;;132.10;53.05;;;;;;;;;;6285770;28;20037;-73
2024/01/06 06:14:23;;;;;;;23.95;13.40;;;;;;;;;;6280382;28;20048;-74
2024/01/06 06:17:31;;;;;;;18.92;11.68;;;;;;;;;;6278055;28;20131;-74
2024/01/06 06:20:33;;;;;;;23.17;13.95;;;;;;;;;;6296837;28;20140;-73
2024/01/06 06:23:35;;;;;;;20.60;12.40;;;;;;;;;;6274154;28;20061;-74
2024/01/06 06:26:37;;;;;;;95.80;43.15;;;;;;;;;;6269423;28;20063;-74
2024/01/06 06:29:42;;;;;;;76.93;32.83;;;;;;;;;;6290223;28;20044;-73
2024/01/06 06:32:46;;;;;;;38.80;19.00;;;;;;;;;;6258953;28;20420;-73
2024/01/06 06:35:48;;;;;;;26.08;14.68;;;;;;;;;;6274469;28;20044;-74
2024/01/06 06:38:50;;;;;;;31.88;16.02;;;;;;;;;;6265997;28;20036;-74
2024/01/06 06:41:52;;;;;;;22.73;14.98;;;;;;;;;;6252357;28;20048;-74
2024/01/06 06:44:54;;;;;;;36.10;17.65;;;;;;;;;;6251256;28;20045;-74
2024/01/06 06:47:56;;;;;;;21.42;13.93;;;;;;;;;;6299018;28;20038;-74
2024/01/06 06:51:00;;;;;;;19.15;11.95;;;;;;;;;;6285431;28;20725;-75
2024/01/06 06:54:03;;;;;;;13.98;8.40;;;;;;;;;;6284390;28;20049;-75
2024/01/06 06:57:07;;;;;;;17.17;8.65;;;;;;;;;;6269287;28;20127;-74
2024/01/06 07:00:14;;;;;;;13.18;6.90;;;;;;;;;;6292410;28;20516;-74
2024/01/06 07:03:18;;;;;;;8.77;5.30;;;;;;;;;;6285968;28;20040;-74
2024/01/06 07:06:20;;;;;;;8.95;5.57;;;;;;;;;;6288932;28;20151;-73
2024/01/06 07:09:24;;;;;;;16.60;8.48;;;;;;;;;;6261451;28;20090;-73
2024/01/06 07:12:27;;;;;;;25.40;12.50;;;;;;;;;;6276402;28;20048;-73
2024/01/06 07:15:29;;;;;;;11.93;7.75;;;;;;;;;;6293402;28;20044;-73
2024/01/06 07:18:33;;;;;;;16.83;11.73;;;;;;;;;;6288855;28;20134;-73
2024/01/06 07:21:35;;;;;;;23.10;15.05;;;;;;;;;;6286199;28;20128;-73
2024/01/06 07:24:39;;;;;;;21.88;14.80;;;;;;;;;;6293728;28;20118;-73
2024/01/06 07:27:41;;;;;;;24.55;13.73;;;;;;;;;;6303374;28;20044;-73
2024/01/06 07:30:44;;;;;;;22.15;11.23;;;;;;;;;;6284074;28;20049;-73
2024/01/06 07:33:47;;;;;;;18.50;11.77;;;;;;;;;;6294116;28;20044;-73
2024/01/06 07:36:49;;;;;;;23.55;17.95;;;;;;;;;;6285869;28;20036;-73
2024/01/06 07:39:51;;;;;;;22.48;14.55;;;;;;;;;;6268643;28;20123;-74
2024/01/06 07:42:54;;;;;;;19.35;12.02;;;;;;;;;;6271318;28;20076;-73
2024/01/06 07:45:56;;;;;;;24.00;15.90;;;;;;;;;;6289664;28;20468;-73
2024/01/06 07:49:00;;;;;;;25.55;16.10;;;;;;;;;;6306826;28;20242;-74
2024/01/06 07:52:02;;;;;;;24.40;14.05;;;;;;;;;;6274490;28;20067;-74
2024/01/06 07:55:05;;;;;;;26.70;19.88;;;;;;;;;;6294101;28;20059;-74
2024/01/06 07:58:07;;;;;;;30.65;15.90;;;;;;;;;;6268763;28;20064;-74
2024/01/06 08:01:09;;;;;;;33.25;18.10;;;;;;;;;;6266564;28;20423;-74
2024/01/06 08:04:11;;;;;;;40.22;22.00;;;;;;;;;;6295904;28;20072;-74
2024/01/06 08:07:15;;;;;;;26.77;18.38;;;;;;;;;;6270968;28;20052;-74
2024/01/06 08:10:18;;;;;;;41.42;20.90;;;;;;;;;;6292907;28;20124;-74
2024/01/06 08:13:20;;;;;;;38.78;22.95;;;;;;;;;;6309713;28;20610;-74
2024/01/06 08:16:22;;;;;;;25.25;16.85;;;;;;;;;;6279509;28;20040;-74
2024/01/06 08:19:25;;;;;;;35.85;18.75;;;;;;;;;;6281388;28;20052;-74
2024/01/06 08:22:29;;;;;;;31.45;18.90;;;;;;;;;;6267041;28;20059;-73
2024/01/06 08:25:31;;;;;;;23.95;15.23;;;;;;;;;;6265430;28;20055;-73
2024/01/06 08:28:33;;;;;;;30.33;17.80;;;;;;;;;;6289289;28;20040;-71
2024/01/06 08:31:35;;;;;;;28.10;17.35;;;;;;;;;;6293564;28;20430;-72
2024/01/06 08:34:38;;;;;;;26.13;17.75;;;;;;;;;;6301394;28;20071;-73
2024/01/06 08:37:40;;;;;;;19.85;15.55;;;;;;;;;;6315554;28;20070;-73
2024/01/06 08:40:44;;;;;;;24.98;14.20;;;;;;;;;;6283068;28;20048;-73
2024/01/06 08:43:46;;;;;;;23.02;14.68;;;;;;;;;;6271015;28;20496;-74
2024/01/06 08:46:48;;;;;;;60.05;24.23;;;;;;;;;;6283821;28;20052;-72
2024/01/06 08:49:50;;;;;;;22.33;15.30;;;;;;;;;;6283232;28;20056;-74
2024/01/06 08:52:52;;;;;;;20.08;11.10;;;;;;;;;;6294415;28;20581;-75
2024/01/06 08:55:54;;;;;;;89.38;48.20;;;;;;;;;;6285966;28;20040;-74
2024/01/06 08:58:57;;;;;;;22.77;15.68;;;;;;;;;;6281815;28;20510;-73
2024/01/06 09:02:01;;;;;;;15.98;9.55;;;;;;;;;;6263955;28;20055;-73
2024/01/06 09:05:10;;;;;;;17.90;9.93;;;;;;;;;;6281054;28;20044;-74
2024/01/06 09:08:16;;;;;;;15.52;8.55;;;;;;;;;;6260640;28;20035;-73
2024/01/06 09:11:18;;;;;;;20.73;11.38;;;;;;;;;;6250425;28;20055;-72
2024/01/06 09:14:21;;;;;;;12.68;9.82;;;;;;;;;;6264380;28;20812;-73
2024/01/06 09:17:23;;;;;;;8.90;6.93;;;;;;;;;;6261294;28;20049;-73
2024/01/06 09:20:27;;;;;;;14.40;9.63;;;;;;;;;;6273139;28;20044;-74
2024/01/06 09:23:30;;;;;;;18.50;10.50;;;;;;;;;;6262494;28;20052;-74
2024/01/06 09:26:35;;;;;;;15.90;10.20;;;;;;;;;;6277259;28;20208;-72
2024/01/06 09:29:37;;;;;;;13.60;8.48;;;;;;;;;;6266154;28;20866;-73
2024/01/06 09:32:41;;;;;;;14.93;9.75;;;;;;;;;;6292687;28;20055;-72
2024/01/06 09:35:44;;;;;;;22.17;13.32;;;;;;;;;;6245742;28;20036;-74
2024/01/06 09:38:46;;;;;;;18.05;10.68;;;;;;;;;;6271278;28;20048;-74
2024/01/06 09:41:48;;;;;;;15.93;9.50;;;;;;;;;;6249896;28;20806;-74
2024/01/06 09:44:52;;;;;;;17.13;9.88;;;;;;;;;;6263510;28;20044;-76
2024/01/06 09:47:55;;;;;;;15.32;8.18;;;;;;;;;;6248427;28;20045;-74
2024/01/06 09:51:02;;;;;;;14.50;6.85;;;;;;;;;;6270454;28;20048;-74
2024/01/06 09:54:08;;;;;;;10.25;6.00;;;;;;;;;;6260430;28;20052;-74
2024/01/06 09:57:11;;;;;;;5.72;3.58;;;;;;;;;;6260005;28;20045;-74
2024/01/06 10:00:13;;;;;;;7.57;2.78;;;;;;;;;;6256601;28;20052;-74
2024/01/06 10:03:16;;;;;;;6.03;3.95;;;;;;;;;;6270462;28;20044;-75
2024/01/06 10:06:20;;;;;;;11.18;5.22;;;;;;;;;;6278325;28;20057;-74
2024/01/06 10:09:27;;;;;;;10.98;7.30;;;;;;;;;;6248452;28;20043;-74
2024/01/06 10:12:31;;;;;;;13.95;6.78;;;;;;;;;;6265064;28;20716;-73
2024/01/06 10:15:36;;;;;;;13.07;8.40;;;;;;;;;;6264779;28;20136;-73
2024/01/06 10:18:38;;;;;;;13.52;5.72;;;;;;;;;;6294046;28;20098;-74
2024/01/06 10:21:41;;;;;;;8.70;6.50;;;;;;;;;;6277462;28;20170;-73
2024/01/06 10:24:44;;;;;;;13.20;4.78;;;;;;;;;;6285529;28;20071;-73
2024/01/06 10:27:46;;;;;;;6.13;5.20;;;;;;;;;;6282428;28;20757;-73
2024/01/06 10:30:51;;;;;;;8.07;4.70;;;;;;;;;;6279522;28;20171;-73
2024/01/06 10:33:54;;;;;;;6.05;3.13;;;;;;;;;;6294113;28;20460;-73
2024/01/06 10:36:57;;;;;;;6.22;3.80;;;;;;;;;;6262222;28;20150;-73
2024/01/06 10:40:09;;;;;;;6.05;2.88;;;;;;;;;;6273011;28;20059;-73
2024/01/06 10:43:12;;;;;;;6.05;2.35;;;;;;;;;;6303989;28;20053;-73
2024/01/06 10:46:15;;;;;;;5.38;2.28;;;;;;;;;;6274762;28;20592;-73
2024/01/06 10:49:21;;;;;;;5.20;3.00;;;;;;;;;;6275205;28;20880;-73
2024/01/06 10:52:24;;;;;;;7.97;2.95;;;;;;;;;;6265078;28;20041;-73
2024/01/06 10:55:26;;;;;;;7.03;3.50;;;;;;;;;;6267961;28;20159;-73
2024/01/06 10:58:33;;;;;;;10.40;5.13;;;;;;;;;;6249644;28;20079;-73
2024/01/06 11:01:35;;;;;;;6.80;3.10;;;;;;;;;;6294548;28;20607;-72
2024/01/06 11:04:38;;;;;;;4.70;2.55;;;;;;;;;;6277391;28;20041;-72
2024/01/06 11:07:41;;;;;;;15.68;8.95;;;;;;;;;;6264717;28;20039;-72
2024/01/06 11:10:44;;;;;;;8.60;3.30;;;;;;;;;;6277832;28;20051;-72
2024/01/06 11:13:47;;;;;;;6.30;3.75;;;;;;;;;;6263027;28;20066;-72
2024/01/06 11:16:51;;;;;;;6.00;2.95;;;;;;;;;;6273829;28;20050;-74
2024/01/06 11:20:04;;;;;;;5.88;2.92;;;;;;;;;;6282506;28;20822;-73
2024/01/06 11:23:23;;;;;;;5.65;3.08;;;;;;;;;;6267280;28;20051;-73
2024/01/06 11:26:25;;;;;;;7.90;2.83;;;;;;;;;;6256466;28;20048;-71
2024/01/06 11:29:30;;;;;;;4.50;2.58;;;;;;;;;;6278894;28;20068;-73
2024/01/06 11:32:38;;;;;;;6.05;3.42;;;;;;;;;;6285567;28;20052;-73
2024/01/06 11:35:43;;;;;;;4.30;2.42;;;;;;;;;;6296331;28;20056;-73
2024/01/06 11:38:50;;;;;;;11.88;5.97;;;;;;;;;;6283474;28;20040;-73
2024/01/06 11:41:53;;;;;;;6.28;2.72;;;;;;;;;;6286319;28;20101;-72
2024/01/06 11:45:01;;;;;;;5.13;2.78;;;;;;;;;;6278683;28;20048;-73
2024/01/06 11:48:05;;;;;;;6.60;3.30;;;;;;;;;;6263003;28;20051;-73
2024/01/06 11:51:08;;;;;;;6.13;3.47;;;;;;;;;;6296187;28;20904;-73
2024/01/06 11:54:12;;;;;;;5.75;3.00;;;;;;;;;;6292436;28;20832;-72
2024/01/06 11:57:14;;;;;;;8.55;4.03;;;;;;;;;;6290125;28;20695;-72
2024/01/06 12:00:17;;;;;;;4.70;1.75;;;;;;;;;;6303686;28;20036;-72
2024/01/06 12:03:20;;;;;;;8.32;2.03;;;;;;;;;;6267115;28;20041;-73
2024/01/06 12:06:23;;;;;;;5.85;3.17;;;;;;;;;;6258293;28;20051;-73
2024/01/06 12:09:26;;;;;;;7.45;2.25;;;;;;;;;;6270084;28;20087;-72
2024/01/06 12:12:29;;;;;;;6.20;3.50;;;;;;;;;;6279870;28;20052;-73
2024/01/06 12:15:32;;;;;;;4.72;2.50;;;;;;;;;;6286076;28;20059;-73
2024/01/06 12:18:34;;;;;;;4.80;1.80;;;;;;;;;;6277522;28;20049;-73
2024/01/06 12:21:38;;;;;;;4.00;1.70;;;;;;;;;;6275890;28;20048;-73
2024/01/06 12:24:41;;;;;;;5.25;2.97;;;;;;;;;;6293421;28;20044;-74
2024/01/06 12:27:44;;;;;;;5.10;2.72;;;;;;;;;;6237780;28;20198;-74
2024/01/06 12:30:46;;;;;;;10.00;4.85;;;;;;;;;;6276172;28;20032;-73
2024/01/06 12:33:49;;;;;;;10.02;5.95;;;;;;;;;;6284108;28;20048;-73
2024/01/06 12:36:53;;;;;;;7.40;4.10;;;;;;;;;;6279846;28;20070;-73
2024/01/06 12:39:57;;;;;;;5.72;3.08;;;;;;;;;;6271744;28;20044;-73
2024/01/06 12:42:59;;;;;;;10.18;5.40;;;;;;;;;;6262097;28;20051;-73
2024/01/06 12:46:02;;;;;;;7.25;5.60;;;;;;;;;;6277540;28;20100;-73
2024/01/06 12:49:04;;;;;;;7.38;5.05;;;;;;;;;;6279005;28;20630;-74
2024/01/06 12:52:06;;;;;;;7.25;5.30;;;;;;;;;;6288985;28;20654;-73
2024/01/06 12:55:08;;;;;;;7.45;3.67;;;;;;;;;;6295695;28;20036;-74
2024/01/06 12:58:13;;;;;;;4.88;3.05;;;;;;;;;;6276441;28;20052;-74
2024/01/06 13:01:15;;;;;;;4.22;2.67;;;;;;;;;;6251586;28;20052;-74
2024/01/06 13:04:17;;;;;;;7.32;3.55;;;;;;;;;;6293135;28;20040;-74
2024/01/06 13:07:19;;;;;;;6.22;2.75;;;;;;;;;;6290782;28;20546;-73
2024/01/06 13:10:22;;;;;;;7.70;3.42;;;;;;;;;;6284701;28;20052;-74
2024/01/06 13:13:25;;;;;;;7.07;3.78;;;;;;;;;;6252848;28;20056;-74
2024/01/06 13:16:27;;;;;;;5.60;3.25;;;;;;;;;;6280868;28;20044;-74
2024/01/06 13:19:30;;;;;;;6.18;3.08;;;;;;;;;;6275346;28;20051;-74
2024/01/06 13:22:32;;;;;;;5.35;2.58;;;;;;;;;;6276586;28;20040;-74
2024/01/06 13:25:40;;;;;;;9.98;5.15;;;;;;;;;;6260610;28;20133;-74
2024/01/06 13:28:42;;;;;;;6.60;2.67;;;;;;;;;;6252297;28;20629;-74
2024/01/06 13:31:45;;;;;;;6.53;3.20;;;;;;;;;;6265552;28;20079;-73
2024/01/06 13:34:48;;;;;;;9.07;3.90;;;;;;;;;;6265563;28;20446;-74
2024/01/06 13:37:53;;;;;;;15.18;8.18;;;;;;;;;;6284357;28;20149;-74
2024/01/06 13:40:55;;;;;;;9.40;4.55;;;;;;;;;;6280167;28;20041;-74
2024/01/06 13:43:57;;;;;;;9.90;5.93;;;;;;;;;;6287113;28;20040;-74
2024/01/06 13:46:59;;;;;;;29.95;10.98;;;;;;;;;;6268531;28;20132;-74
2024/01/06 13:50:01;;;;;;;14.13;7.22;;;;;;;;;;6298300;28;20044;-74
2024/01/06 13:53:06;;;;;;;10.10;5.28;;;;;;;;;;6289165;28;20386;-74
2024/01/06 13:56:08;;;;;;;12.50;6.40;;;;;;;;;;6285128;28;20064;-74
2024/01/06 13:59:10;;;;;;;15.32;6.50;;;;;;;;;;6286736;28;20048;-74
2024/01/06 14:02:12;;;;;;;8.20;5.22;;;;;;;;;;6301288;28;20079;-74
2024/01/06 14:05:14;;;;;;;8.13;4.15;;;;;;;;;;6276475;28;20043;-74
2024/01/06 14:08:16;;;;;;;8.05;3.60;;;;;;;;;;6271416;28;20057;-74
2024/01/06 14:11:19;;;;;;;5.97;3.05;;;;;;;;;;6278782;28;20053;-75
2024/01/06 14:14:23;;;;;;;6.22;3.20;;;;;;;;;;6277361;28;20029;-74
2024/01/06 14:17:25;;;;;;;7.13;3.45;;;;;;;;;;6262361;28;20132;-74
2024/01/06 14:20:27;;;;;;;5.05;2.50;;;;;;;;;;6263121;28;20123;-74
2024/01/06 14:23:32;;;;;;;6.80;3.38;;;;;;;;;;6257455;28;20048;-74
2024/01/06 14:26:35;;;;;;;9.70;6.82;;;;;;;;;;6283072;28;20047;-74
2024/01/06 14:29:39;;;;;;;11.25;8.00;;;;;;;;;;6250994;28;20037;-74
2024/01/06 14:32:41;;;;;;;6.20;2.70;;;;;;;;;;6277435;28;20943;-74
2024/01/06 14:35:44;;;;;;;4.55;2.35;;;;;;;;;;6279250;28;20664;-74
2024/01/06 14:38:46;;;;;;;6.10;4.95;;;;;;;;;;6287005;28;20101;-74
2024/01/06 14:41:48;;;;;;;4.43;1.83;;;;;;;;;;6266929;28;20044;-74
2024/01/06 14:44:51;;;;;;;4.70;3.22;;;;;;;;;;6275901;28;20048;-74
2024/01/06 14:47:53;;;;;;;9.68;3.70;;;;;;;;;;6286077;28;20094;-74
2024/01/06 14:50:55;;;;;;;5.65;3.22;;;;;;;;;;6302523;28;20032;-74
2024/01/06 14:53:57;;;;;;;6.18;2.55;;;;;;;;;;6298620;28;20078;-74
2024/01/06 14:56:59;;;;;;;7.20;3.80;;;;;;;;;;6268462;28;20246;-73
2024/01/06 15:00:02;;;;;;;5.55;2.55;;;;;;;;;;6287491;28;20041;-73
2024/01/06 15:03:04;;;;;;;6.63;4.40;;;;;;;;;;6284653;28;20051;-74
2024/01/06 15:06:08;;;;;;;12.15;5.00;;;;;;;;;;6261825;28;20044;-73
2024/01/06 15:09:11;;;;;;;8.90;5.57;;;;;;;;;;6284248;28;20648;-73
2024/01/06 15:12:13;;;;;;;13.32;6.53;;;;;;;;;;6300292;28;20523;-73
2024/01/06 15:15:17;;;;;;;8.40;4.15;;;;;;;;;;6278092;28;20052;-73
2024/01/06 15:18:21;;;;;;;9.85;5.63;;;;;;;;;;6268757;28;20435;-73
2024/01/06 15:21:27;;;;;;;6.32;2.90;;;;;;;;;;6288634;28;20041;-73
2024/01/06 15:24:29;;;;;;;5.07;3.45;;;;;;;;;;6270975;28;20493;-73
2024/01/06 15:27:32;;;;;;;5.82;3.20;;;;;;;;;;6287646;28;20140;-73
2024/01/06 15:30:35;;;;;;;5.85;3.05;;;;;;;;;;6274279;28;20045;-72
2024/01/06 15:33:41;;;;;;;6.50;3.15;;;;;;;;;;6283806;28;20426;-72
2024/01/06 15:36:45;;;;;;;5.80;2.55;;;;;;;;;;6282405;28;20035;-73
2024/01/06 15:39:47;;;;;;;4.78;2.35;;;;;;;;;;6307921;28;20765;-73
2024/01/06 15:42:50;;;;;;;8.52;3.47;;;;;;;;;;6293530;28;20055;-74
2024/01/06 15:45:55;;;;;;;5.18;3.67;;;;;;;;;;6261357;28;20438;-73
2024/01/06 15:48:57;;;;;;;;;;;;;;;;;;6278357;28;20051;-74
2024/01/06 15:52:00;;;;;;;10.80;4.85;;;;;;;;;;6294992;28;19999;-74
2024/01/06 15:55:02;;;;;;;13.32;4.75;;;;;;;;;;6282260;28;20446;-74
2024/01/06 15:58:04;;;;;;;17.83;7.15;;;;;;;;;;6252451;28;20807;-74
2024/01/06 16:01:07;;;;;;;18.27;9.38;;;;;;;;;;6267751;28;20074;-74
2024/01/06 16:04:09;;;;;;;17.65;7.88;;;;;;;;;;6265326;28;20443;-74
2024/01/06 16:07:12;;;;;;;14.52;8.85;;;;;;;;;;6265491;28;20764;-74
2024/01/06 16:10:14;;;;;;;16.27;7.63;;;;;;;;;;6275485;28;20041;-74
2024/01/06 16:13:18;;;;;;;10.38;6.57;;;;;;;;;;6298221;28;20055;-74
2024/01/06 16:16:21;;;;;;;8.05;4.60;;;;;;;;;;6285850;28;20041;-76
2024/01/06 16:19:24;;;;;;;8.88;5.75;;;;;;;;;;6271831;28;20498;-74
2024/01/06 16:22:26;;;;;;;12.27;5.65;;;;;;;;;;6285096;28;20049;-74
2024/01/06 16:25:29;;;;;;;8.50;5.32;;;;;;;;;;6284161;28;20052;-74
2024/01/06 16:28:31;;;;;;;9.07;4.18;;;;;;;;;;6257611;28;20041;-74
2024/01/06 16:31:34;;;;;;;8.07;4.85;;;;;;;;;;6265530;28;20105;-74
2024/01/06 16:34:38;;;;;;;9.82;4.90;;;;;;;;;;6286160;28;20040;-74
2024/01/06 16:37:41;;;;;;;7.22;4.03;;;;;;;;;;6286460;28;20032;-74
2024/01/06 16:40:43;;;;;;;11.38;3.78;;;;;;;;;;6277122;28;20719;-74
2024/01/06 16:43:46;;;;;;;6.82;4.35;;;;;;;;;;6230251;28;1145352;-74
2024/01/06 16:46:48;;;;;;;8.65;3.03;;;;;;;;;;6273499;28;20048;-74
2024/01/06 16:49:49;;;;;;;7.47;3.83;;;;;;;;;;6257815;28;20578;-74
2024/01/06 16:52:52;;;;;;;14.32;5.57;;;;;;;;;;6284888;28;20143;-74
2024/01/06 16:55:54;;;;;;;8.85;4.28;;;;;;;;;;6278416;28;20044;-74
2024/01/06 16:58:56;;;;;;;6.65;3.97;;;;;;;;;;6267123;28;20047;-74
2024/01/06 17:02:00;;;;;;;8.40;4.43;;;;;;;;;;6277112;28;20043;-74
2024/01/06 17:05:03;;;;;;;7.40;4.18;;;;;;;;;;6265521;28;20488;-74
2024/01/06 17:08:06;;;;;;;10.57;5.60;;;;;;;;;;6290173;28;20043;-74
2024/01/06 17:11:08;;;;;;;5.28;3.67;;;;;;;;;;6256837;28;20279;-74
2024/01/06 17:14:11;;;;;;;7.38;3.53;;;;;;;;;;6294384;28;20044;-74
2024/01/06 17:17:13;;;;;;;5.63;2.83;;;;;;;;;;6265397;28;20764;-73
2024/01/06 17:20:16;;;;;;;6.82;4.18;;;;;;;;;;6285361;28;20197;-73
2024/01/06 17:23:18;;;;;;;7.47;3.75;;;;;;;;;;6277347;28;20039;-73
2024/01/06 17:26:20;;;;;;;7.35;4.13;;;;;;;;;;6293934;28;20071;-73
2024/01/06 17:29:22;;;;;;;9.07;4.20;;;;;;;;;;6291659;28;20060;-73
2024/01/06 17:32:24;;;;;;;7.30;4.00;;;;;;;;;;6279788;28;20153;-74
2024/01/06 17:35:27;;;;;;;7.22;3.55;;;;;;;;;;6259239;28;20522;-74
2024/01/06 17:38:30;;;;;;;9.07;4.72;;;;;;;;;;6254306;28;20964;-74
2024/01/06 17:41:33;;;;;;;11.43;4.18;;;;;;;;;;6268067;28;20047;-73
2024/01/06 17:44:46;;;;;;;6.35;3.58;;;;;;;;;;6289168;28;20450;-73
2024/01/06 17:47:49;;;;;;;8.57;4.63;;;;;;;;;;6271838;28;20055;-73
2024/01/06 17:50:51;;;;;;;7.72;4.75;;;;;;;;;;6288316;28;20061;-73
2024/01/06 17:53:54;;;;;;;6.82;4.15;;;;;;;;;;6289889;28;20596;-74
2024/01/06 17:56:56;;;;;;;10.13;5.47;;;;;;;;;;6274411;28;20087;-74
2024/01/06 17:59:58;;;;;;;11.35;5.18;;;;;;;;;;6297817;28;20052;-74